sensor_id;sensor_type;location;lat;lon;timestamp;pressure;altitude;pressure_sealevel;temperature;humidity
40171;BME280;37650;52.790;18.268;2023-04-15T00:02:47;99679.34;;;8.75;99.90
40171;BME280;37650;52.790;18.268;2023-04-15T00:06:09;99682.32;;;8.74;100.00
40171;BME280;37650;52.790;18.268;2023-04-15T00:09:30;99681.13;;;8.73;100.00
40171;BME280;37650;52.790;18.268;2023-04-15T00:12:51;99683.02;;;8.74;100.00
40171;BME280;37650;52.790;18.268;2023-04-15T00:16:14;99679.03;;;8.73;100.00
40171;BME280;37650;52.790;18.268;2023-04-15T00:19:36;99684.08;;;8.74;100.00
40171;BME280;37650;52.790;18.268;2023-04-15T00:22:57;99684.11;;;8.73;100.00
40171;BME280;37650;52.790;18.268;2023-04-15T00:26:20;99684.95;;;8.74;100.00
40171;BME280;37650;52.790;18.268;2023-04-15T00:29:41;99680.88;;;8.76;100.00
40171;BME280;37650;52.790;18.268;2023-04-15T00:33:03;99676.88;;;8.75;100.00
40171;BME280;37650;52.790;18.268;2023-04-15T00:36:23;99675.40;;;8.77;100.00
40171;BME280;37650;52.790;18.268;2023-04-15T00:39:45;99675.11;;;8.79;100.00
40171;BME280;37650;52.790;18.268;2023-04-15T00:43:06;99678.98;;;8.82;100.00
40171;BME280;37650;52.790;18.268;2023-04-15T00:46:29;99680.11;;;8.85;100.00
40171;BME280;37650;52.790;18.268;2023-04-15T00:49:54;99681.23;;;8.87;100.00
40171;BME280;37650;52.790;18.268;2023-04-15T00:53:15;99683.17;;;8.87;100.00
40171;BME280;37650;52.790;18.268;2023-04-15T00:56:37;99678.54;;;8.85;100.00
40171;BME280;37650;52.790;18.268;2023-04-15T00:59:59;99675.95;;;8.84;100.00
40171;BME280;37650;52.790;18.268;2023-04-15T01:03:20;99675.13;;;8.83;100.00
40171;BME280;37650;52.790;18.268;2023-04-15T01:06:41;99674.66;;;8.81;100.00
40171;BME280;37650;52.790;18.268;2023-04-15T01:10:03;99677.38;;;8.79;100.00
40171;BME280;37650;52.790;18.268;2023-04-15T01:13:25;99674.60;;;8.75;100.00
40171;BME280;37650;52.790;18.268;2023-04-15T01:16:47;99677.08;;;8.74;100.00
40171;BME280;37650;52.790;18.268;2023-04-15T01:20:08;99676.89;;;8.74;100.00
40171;BME280;37650;52.790;18.268;2023-04-15T01:23:32;99679.15;;;8.75;100.00
40171;BME280;37650;52.790;18.268;2023-04-15T01:26:56;99678.15;;;8.74;100.00
40171;BME280;37650;52.790;18.268;2023-04-15T01:30:18;99674.65;;;8.73;100.00
40171;BME280;37650;52.790;18.268;2023-04-15T01:33:41;99673.23;;;8.74;100.00
40171;BME280;37650;52.790;18.268;2023-04-15T01:37:02;99672.06;;;8.73;100.00
40171;BME280;37650;52.790;18.268;2023-04-15T01:40:23;99675.88;;;8.69;100.00
40171;BME280;37650;52.790;18.268;2023-04-15T01:43:45;99674.88;;;8.68;100.00
40171;BME280;37650;52.790;18.268;2023-04-15T01:47:07;99675.08;;;8.67;100.00
40171;BME280;37650;52.790;18.268;2023-04-15T01:50:28;99677.89;;;8.66;100.00
40171;BME280;37650;52.790;18.268;2023-04-15T01:53:50;99674.63;;;8.66;100.00
40171;BME280;37650;52.790;18.268;2023-04-15T01:57:12;99675.34;;;8.65;100.00
40171;BME280;37650;52.790;18.268;2023-04-15T02:00:33;99672.18;;;8.65;100.00
40171;BME280;37650;52.790;18.268;2023-04-15T02:03:55;99669.42;;;8.69;100.00
40171;BME280;37650;52.790;18.268;2023-04-15T02:07:16;99669.09;;;8.72;100.00
40171;BME280;37650;52.790;18.268;2023-04-15T02:10:38;99669.23;;;8.73;100.00
40171;BME280;37650;52.790;18.268;2023-04-15T02:13:59;99672.27;;;8.76;100.00
40171;BME280;37650;52.790;18.268;2023-04-15T02:17:22;99670.91;;;8.79;100.00
40171;BME280;37650;52.790;18.268;2023-04-15T02:20:44;99666.91;;;8.82;100.00
40171;BME280;37650;52.790;18.268;2023-04-15T02:24:07;99666.71;;;8.83;100.00
40171;BME280;37650;52.790;18.268;2023-04-15T02:27:28;99668.02;;;8.86;100.00
40171;BME280;37650;52.790;18.268;2023-04-15T02:30:50;99667.86;;;8.90;100.00
40171;BME280;37650;52.790;18.268;2023-04-15T02:34:13;99665.23;;;8.94;100.00
40171;BME280;37650;52.790;18.268;2023-04-15T02:37:38;99664.89;;;8.98;100.00
40171;BME280;37650;52.790;18.268;2023-04-15T02:41:05;99663.27;;;9.00;100.00
40171;BME280;37650;52.790;18.268;2023-04-15T02:44:28;99664.50;;;9.03;100.00
40171;BME280;37650;52.790;18.268;2023-04-15T02:47:53;99665.33;;;9.04;100.00
40171;BME280;37650;52.790;18.268;2023-04-15T02:51:19;99662.96;;;9.07;100.00
40171;BME280;37650;52.790;18.268;2023-04-15T02:54:40;99660.13;;;9.08;100.00
40171;BME280;37650;52.790;18.268;2023-04-15T02:58:02;99663.68;;;9.10;100.00
40171;BME280;37650;52.790;18.268;2023-04-15T03:01:23;99661.66;;;9.12;100.00
40171;BME280;37650;52.790;18.268;2023-04-15T03:04:44;99663.45;;;9.15;100.00
40171;BME280;37650;52.790;18.268;2023-04-15T03:08:06;99661.28;;;9.17;100.00
40171;BME280;37650;52.790;18.268;2023-04-15T03:11:29;99662.55;;;9.20;100.00
40171;BME280;37650;52.790;18.268;2023-04-15T03:14:52;99666.69;;;9.21;100.00
40171;BME280;37650;52.790;18.268;2023-04-15T03:18:15;99669.80;;;9.22;100.00
40171;BME280;37650;52.790;18.268;2023-04-15T03:21:36;99670.13;;;9.23;100.00
40171;BME280;37650;52.790;18.268;2023-04-15T03:24:58;99673.48;;;9.26;100.00
40171;BME280;37650;52.790;18.268;2023-04-15T03:28:19;99679.94;;;9.31;100.00
40171;BME280;37650;52.790;18.268;2023-04-15T03:31:40;99680.89;;;9.33;100.00
40171;BME280;37650;52.790;18.268;2023-04-15T03:35:02;99676.75;;;9.32;100.00
40171;BME280;37650;52.790;18.268;2023-04-15T03:38:23;99680.66;;;9.30;100.00
40171;BME280;37650;52.790;18.268;2023-04-15T03:41:45;99675.71;;;9.31;100.00
40171;BME280;37650;52.790;18.268;2023-04-15T03:45:07;99679.91;;;9.31;100.00
40171;BME280;37650;52.790;18.268;2023-04-15T03:48:28;99681.83;;;9.32;100.00
40171;BME280;37650;52.790;18.268;2023-04-15T03:51:49;99679.34;;;9.33;100.00
40171;BME280;37650;52.790;18.268;2023-04-15T03:55:11;99683.14;;;9.34;100.00
40171;BME280;37650;52.790;18.268;2023-04-15T03:58:32;99682.26;;;9.30;100.00
40171;BME280;37650;52.790;18.268;2023-04-15T04:01:53;99686.70;;;9.28;100.00
40171;BME280;37650;52.790;18.268;2023-04-15T04:05:15;99687.27;;;9.27;100.00
40171;BME280;37650;52.790;18.268;2023-04-15T04:08:37;99691.77;;;9.28;100.00
40171;BME280;37650;52.790;18.268;2023-04-15T04:11:58;99690.96;;;9.27;100.00
40171;BME280;37650;52.790;18.268;2023-04-15T04:15:19;99690.52;;;9.25;100.00
40171;BME280;37650;52.790;18.268;2023-04-15T04:18:40;99689.86;;;9.24;100.00
40171;BME280;37650;52.790;18.268;2023-04-15T04:22:01;99687.48;;;9.22;100.00
40171;BME280;37650;52.790;18.268;2023-04-15T04:25:22;99687.17;;;9.21;100.00
40171;BME280;37650;52.790;18.268;2023-04-15T04:28:44;99688.90;;;9.21;100.00
40171;BME280;37650;52.790;18.268;2023-04-15T04:32:06;99689.56;;;9.23;100.00
40171;BME280;37650;52.790;18.268;2023-04-15T04:35:27;99693.33;;;9.25;100.00
40171;BME280;37650;52.790;18.268;2023-04-15T04:38:48;99691.36;;;9.25;100.00
40171;BME280;37650;52.790;18.268;2023-04-15T04:42:09;99695.11;;;9.28;100.00
40171;BME280;37650;52.790;18.268;2023-04-15T04:45:31;99694.20;;;9.29;100.00
40171;BME280;37650;52.790;18.268;2023-04-15T04:48:52;99699.90;;;9.30;100.00
40171;BME280;37650;52.790;18.268;2023-04-15T04:52:13;99697.85;;;9.29;100.00
40171;BME280;37650;52.790;18.268;2023-04-15T04:55:34;99704.76;;;9.27;100.00
40171;BME280;37650;52.790;18.268;2023-04-15T04:58:58;99707.50;;;9.24;100.00
40171;BME280;37650;52.790;18.268;2023-04-15T05:02:20;99711.36;;;9.24;100.00
40171;BME280;37650;52.790;18.268;2023-04-15T05:05:41;99707.98;;;9.22;100.00
40171;BME280;37650;52.790;18.268;2023-04-15T05:09:03;99711.63;;;9.18;100.00
40171;BME280;37650;52.790;18.268;2023-04-15T05:12:25;99716.64;;;9.15;100.00
40171;BME280;37650;52.790;18.268;2023-04-15T05:15:47;99720.50;;;9.15;100.00
40171;BME280;37650;52.790;18.268;2023-04-15T05:19:08;99722.21;;;9.12;100.00
40171;BME280;37650;52.790;18.268;2023-04-15T05:22:29;99720.90;;;9.10;100.00
40171;BME280;37650;52.790;18.268;2023-04-15T05:25:50;99720.95;;;9.09;100.00
40171;BME280;37650;52.790;18.268;2023-04-15T05:29:12;99722.06;;;9.08;100.00
40171;BME280;37650;52.790;18.268;2023-04-15T05:32:33;99723.77;;;9.04;100.00
40171;BME280;37650;52.790;18.268;2023-04-15T05:35:55;99728.37;;;8.99;100.00
40171;BME280;37650;52.790;18.268;2023-04-15T05:39:16;99726.12;;;8.94;100.00
40171;BME280;37650;52.790;18.268;2023-04-15T05:42:37;99727.13;;;8.86;100.00
40171;BME280;37650;52.790;18.268;2023-04-15T05:45:58;99727.46;;;8.82;100.00
40171;BME280;37650;52.790;18.268;2023-04-15T05:49:20;99728.79;;;8.79;100.00
40171;BME280;37650;52.790;18.268;2023-04-15T05:52:41;99728.95;;;8.75;100.00
40171;BME280;37650;52.790;18.268;2023-04-15T05:56:03;99730.95;;;8.73;100.00
40171;BME280;37650;52.790;18.268;2023-04-15T05:59:24;99731.00;;;8.72;100.00
40171;BME280;37650;52.790;18.268;2023-04-15T06:02:45;99735.77;;;8.71;100.00
40171;BME280;37650;52.790;18.268;2023-04-15T06:06:06;99737.32;;;8.71;100.00
40171;BME280;37650;52.790;18.268;2023-04-15T06:09:28;99740.72;;;8.70;100.00
40171;BME280;37650;52.790;18.268;2023-04-15T06:12:51;99737.64;;;8.68;100.00
40171;BME280;37650;52.790;18.268;2023-04-15T06:16:12;99739.02;;;8.69;100.00
40171;BME280;37650;52.790;18.268;2023-04-15T06:19:34;99739.25;;;8.67;100.00
40171;BME280;37650;52.790;18.268;2023-04-15T06:22:56;99741.34;;;8.67;100.00
40171;BME280;37650;52.790;18.268;2023-04-15T06:26:18;99746.02;;;8.68;100.00
40171;BME280;37650;52.790;18.268;2023-04-15T06:29:39;99745.00;;;8.72;100.00
40171;BME280;37650;52.790;18.268;2023-04-15T06:33:00;99747.57;;;8.73;100.00
40171;BME280;37650;52.790;18.268;2023-04-15T06:36:25;99748.23;;;8.70;100.00
40171;BME280;37650;52.790;18.268;2023-04-15T06:39:46;99749.08;;;8.71;100.00
40171;BME280;37650;52.790;18.268;2023-04-15T06:43:08;99753.34;;;8.69;100.00
40171;BME280;37650;52.790;18.268;2023-04-15T06:46:29;99759.95;;;8.70;100.00
40171;BME280;37650;52.790;18.268;2023-04-15T06:49:51;99764.85;;;8.70;100.00
40171;BME280;37650;52.790;18.268;2023-04-15T06:53:13;99761.85;;;8.70;100.00
40171;BME280;37650;52.790;18.268;2023-04-15T06:56:38;99761.75;;;8.73;100.00
40171;BME280;37650;52.790;18.268;2023-04-15T06:59:59;99764.64;;;8.75;100.00
40171;BME280;37650;52.790;18.268;2023-04-15T07:03:21;99769.74;;;8.79;100.00
40171;BME280;37650;52.790;18.268;2023-04-15T07:06:46;99769.89;;;8.84;100.00
40171;BME280;37650;52.790;18.268;2023-04-15T07:10:07;99777.66;;;8.86;100.00
40171;BME280;37650;52.790;18.268;2023-04-15T07:13:30;99778.63;;;8.88;100.00
40171;BME280;37650;52.790;18.268;2023-04-15T07:16:52;99776.39;;;8.87;100.00
40171;BME280;37650;52.790;18.268;2023-04-15T07:20:14;99781.12;;;8.92;100.00
40171;BME280;37650;52.790;18.268;2023-04-15T07:23:35;99781.29;;;8.96;100.00
40171;BME280;37650;52.790;18.268;2023-04-15T07:26:56;99783.84;;;8.98;100.00
40171;BME280;37650;52.790;18.268;2023-04-15T07:30:19;99789.05;;;8.99;100.00
40171;BME280;37650;52.790;18.268;2023-04-15T07:33:40;99788.25;;;9.02;100.00
40171;BME280;37650;52.790;18.268;2023-04-15T07:37:02;99787.03;;;9.02;100.00
40171;BME280;37650;52.790;18.268;2023-04-15T07:40:24;99787.62;;;9.04;100.00
40171;BME280;37650;52.790;18.268;2023-04-15T07:43:45;99786.70;;;9.10;100.00
40171;BME280;37650;52.790;18.268;2023-04-15T07:47:06;99790.42;;;9.13;100.00
40171;BME280;37650;52.790;18.268;2023-04-15T07:50:28;99793.59;;;9.16;100.00
40171;BME280;37650;52.790;18.268;2023-04-15T07:53:50;99794.95;;;9.22;100.00
40171;BME280;37650;52.790;18.268;2023-04-15T07:57:12;99793.30;;;9.24;100.00
40171;BME280;37650;52.790;18.268;2023-04-15T08:00:33;99794.10;;;9.30;100.00
40171;BME280;37650;52.790;18.268;2023-04-15T08:03:54;99795.12;;;9.35;100.00
40171;BME280;37650;52.790;18.268;2023-04-15T08:07:16;99797.42;;;9.38;100.00
40171;BME280;37650;52.790;18.268;2023-04-15T08:10:38;99799.09;;;9.45;100.00
40171;BME280;37650;52.790;18.268;2023-04-15T08:13:59;99797.91;;;9.47;100.00
40171;BME280;37650;52.790;18.268;2023-04-15T08:17:22;99803.06;;;9.50;100.00
40171;BME280;37650;52.790;18.268;2023-04-15T08:20:44;99805.23;;;9.60;100.00
40171;BME280;37650;52.790;18.268;2023-04-15T08:24:05;99807.23;;;9.67;100.00
40171;BME280;37650;52.790;18.268;2023-04-15T08:27:27;99811.15;;;9.66;100.00
40171;BME280;37650;52.790;18.268;2023-04-15T08:30:48;99814.55;;;9.64;100.00
40171;BME280;37650;52.790;18.268;2023-04-15T08:34:11;99817.70;;;9.68;100.00
40171;BME280;37650;52.790;18.268;2023-04-15T08:37:33;99820.88;;;9.67;100.00
40171;BME280;37650;52.790;18.268;2023-04-15T08:40:55;99825.37;;;9.65;100.00
40171;BME280;37650;52.790;18.268;2023-04-15T08:44:18;99824.73;;;9.63;100.00
40171;BME280;37650;52.790;18.268;2023-04-15T08:47:42;99822.83;;;9.67;100.00
40171;BME280;37650;52.790;18.268;2023-04-15T08:51:19;99826.23;;;9.72;100.00
40171;BME280;37650;52.790;18.268;2023-04-15T08:54:41;99823.98;;;9.77;100.00
40171;BME280;37650;52.790;18.268;2023-04-15T08:58:35;99823.55;;;9.83;100.00
40171;BME280;37650;52.790;18.268;2023-04-15T09:02:40;99829.88;;;9.87;100.00
40171;BME280;37650;52.790;18.268;2023-04-15T09:06:04;99827.50;;;9.89;100.00
40171;BME280;37650;52.790;18.268;2023-04-15T09:09:26;99830.75;;;9.95;100.00
40171;BME280;37650;52.790;18.268;2023-04-15T09:12:47;99828.95;;;9.96;100.00
40171;BME280;37650;52.790;18.268;2023-04-15T09:16:09;99830.42;;;9.90;100.00
40171;BME280;37650;52.790;18.268;2023-04-15T09:19:30;99832.96;;;9.93;100.00
40171;BME280;37650;52.790;18.268;2023-04-15T09:24:05;99832.98;;;9.87;100.00
40171;BME280;37650;52.790;18.268;2023-04-15T09:27:22;99829.92;;;9.86;100.00
40171;BME280;37650;52.790;18.268;2023-04-15T09:30:43;99831.54;;;9.85;100.00
40171;BME280;37650;52.790;18.268;2023-04-15T09:34:06;99831.25;;;9.83;100.00
40171;BME280;37650;52.790;18.268;2023-04-15T09:37:36;99831.94;;;9.80;100.00
40171;BME280;37650;52.790;18.268;2023-04-15T09:40:58;99830.64;;;9.77;100.00
40171;BME280;37650;52.790;18.268;2023-04-15T09:44:23;99831.02;;;9.72;100.00
40171;BME280;37650;52.790;18.268;2023-04-15T09:47:45;99838.31;;;9.69;100.00
40171;BME280;37650;52.790;18.268;2023-04-15T09:51:07;99838.55;;;9.68;100.00
40171;BME280;37650;52.790;18.268;2023-04-15T09:54:36;99843.45;;;9.64;100.00
40171;BME280;37650;52.790;18.268;2023-04-15T09:57:58;99842.26;;;9.59;100.00
40171;BME280;37650;52.790;18.268;2023-04-15T10:01:19;99847.63;;;9.52;100.00
40171;BME280;37650;52.790;18.268;2023-04-15T10:04:41;99845.41;;;9.46;100.00
40171;BME280;37650;52.790;18.268;2023-04-15T10:08:03;99848.10;;;9.44;100.00
40171;BME280;37650;52.790;18.268;2023-04-15T10:11:29;99848.60;;;9.45;100.00
40171;BME280;37650;52.790;18.268;2023-04-15T10:14:57;99850.30;;;9.42;100.00
40171;BME280;37650;52.790;18.268;2023-04-15T10:18:20;99849.02;;;9.39;100.00
40171;BME280;37650;52.790;18.268;2023-04-15T10:21:44;99850.57;;;9.40;100.00
40171;BME280;37650;52.790;18.268;2023-04-15T10:25:05;99847.74;;;9.40;100.00
40171;BME280;37650;52.790;18.268;2023-04-15T10:28:27;99845.98;;;9.45;100.00
40171;BME280;37650;52.790;18.268;2023-04-15T10:31:49;99845.78;;;9.50;100.00
40171;BME280;37650;52.790;18.268;2023-04-15T10:35:11;99845.48;;;9.57;100.00
40171;BME280;37650;52.790;18.268;2023-04-15T10:38:44;99849.99;;;9.58;100.00
40171;BME280;37650;52.790;18.268;2023-04-15T10:42:17;99847.23;;;9.57;100.00
40171;BME280;37650;52.790;18.268;2023-04-15T10:45:43;99845.43;;;9.58;100.00
40171;BME280;37650;52.790;18.268;2023-04-15T10:49:10;99845.88;;;9.64;100.00
40171;BME280;37650;52.790;18.268;2023-04-15T10:52:32;99846.84;;;9.66;100.00
40171;BME280;37650;52.790;18.268;2023-04-15T10:55:53;99846.58;;;9.73;100.00
40171;BME280;37650;52.790;18.268;2023-04-15T10:59:15;99849.58;;;9.81;100.00
40171;BME280;37650;52.790;18.268;2023-04-15T11:02:57;99853.84;;;9.88;100.00
40171;BME280;37650;52.790;18.268;2023-04-15T11:06:19;99852.78;;;9.79;100.00
40171;BME280;37650;52.790;18.268;2023-04-15T11:09:40;99857.09;;;9.77;100.00
40171;BME280;37650;52.790;18.268;2023-04-15T11:13:04;99855.64;;;9.74;100.00
40171;BME280;37650;52.790;18.268;2023-04-15T11:16:25;99856.13;;;9.75;100.00
40171;BME280;37650;52.790;18.268;2023-04-15T11:19:47;99857.21;;;9.74;100.00
40171;BME280;37650;52.790;18.268;2023-04-15T11:23:08;99861.59;;;9.73;100.00
40171;BME280;37650;52.790;18.268;2023-04-15T11:26:30;99861.60;;;9.73;100.00
40171;BME280;37650;52.790;18.268;2023-04-15T11:29:52;99862.75;;;9.71;100.00
40171;BME280;37650;52.790;18.268;2023-04-15T11:33:14;99865.04;;;9.76;100.00
40171;BME280;37650;52.790;18.268;2023-04-15T11:36:35;99868.36;;;9.80;100.00
40171;BME280;37650;52.790;18.268;2023-04-15T11:39:56;99866.41;;;9.80;100.00
40171;BME280;37650;52.790;18.268;2023-04-15T11:43:19;99869.56;;;9.80;100.00
40171;BME280;37650;52.790;18.268;2023-04-15T11:46:41;99874.55;;;9.82;100.00
40171;BME280;37650;52.790;18.268;2023-04-15T11:53:48;99873.38;;;9.81;100.00
40171;BME280;37650;52.790;18.268;2023-04-15T11:57:13;99875.43;;;9.78;100.00
40171;BME280;37650;52.790;18.268;2023-04-15T12:00:34;99879.80;;;9.83;100.00
40171;BME280;37650;52.790;18.268;2023-04-15T12:03:56;99880.38;;;9.86;100.00
40171;BME280;37650;52.790;18.268;2023-04-15T12:07:19;99882.49;;;9.85;100.00
40171;BME280;37650;52.790;18.268;2023-04-15T12:10:41;99885.08;;;9.90;100.00
40171;BME280;37650;52.790;18.268;2023-04-15T12:14:35;99881.63;;;9.93;100.00
40171;BME280;37650;52.790;18.268;2023-04-15T12:17:58;99886.98;;;9.95;100.00
40171;BME280;37650;52.790;18.268;2023-04-15T12:21:19;99885.27;;;9.98;100.00
40171;BME280;37650;52.790;18.268;2023-04-15T12:24:42;99887.24;;;9.97;100.00
40171;BME280;37650;52.790;18.268;2023-04-15T12:28:13;99886.77;;;10.00;100.00
40171;BME280;37650;52.790;18.268;2023-04-15T12:31:34;99888.61;;;10.02;100.00
40171;BME280;37650;52.790;18.268;2023-04-15T12:34:59;99892.47;;;10.02;100.00
40171;BME280;37650;52.790;18.268;2023-04-15T12:38:20;99892.67;;;10.01;100.00
40171;BME280;37650;52.790;18.268;2023-04-15T12:41:42;99892.02;;;10.04;100.00
40171;BME280;37650;52.790;18.268;2023-04-15T12:45:03;99894.89;;;10.03;100.00
40171;BME280;37650;52.790;18.268;2023-04-15T12:48:25;99895.66;;;10.05;100.00
40171;BME280;37650;52.790;18.268;2023-04-15T12:51:50;99896.39;;;10.12;100.00
40171;BME280;37650;52.790;18.268;2023-04-15T12:55:15;99898.05;;;10.15;100.00
40171;BME280;37650;52.790;18.268;2023-04-15T12:58:37;99902.38;;;10.17;100.00
40171;BME280;37650;52.790;18.268;2023-04-15T13:01:58;99900.39;;;10.19;100.00
40171;BME280;37650;52.790;18.268;2023-04-15T13:05:20;99903.31;;;10.20;100.00
40171;BME280;37650;52.790;18.268;2023-04-15T13:08:42;99906.30;;;10.24;100.00
40171;BME280;37650;52.790;18.268;2023-04-15T13:12:03;99905.02;;;10.29;100.00
40171;BME280;37650;52.790;18.268;2023-04-15T13:15:25;99907.88;;;10.43;100.00
40171;BME280;37650;52.790;18.268;2023-04-15T13:18:47;99905.82;;;10.54;100.00
40171;BME280;37650;52.790;18.268;2023-04-15T13:22:13;99908.60;;;10.63;100.00
40171;BME280;37650;52.790;18.268;2023-04-15T13:25:35;99909.67;;;10.67;100.00
40171;BME280;37650;52.790;18.268;2023-04-15T13:28:56;99917.63;;;10.72;100.00
40171;BME280;37650;52.790;18.268;2023-04-15T13:32:17;99919.30;;;10.79;100.00
40171;BME280;37650;52.790;18.268;2023-04-15T13:35:39;99916.23;;;10.76;100.00
40171;BME280;37650;52.790;18.268;2023-04-15T13:39:01;99918.80;;;10.74;100.00
40171;BME280;37650;52.790;18.268;2023-04-15T13:42:23;99920.07;;;10.73;100.00
40171;BME280;37650;52.790;18.268;2023-04-15T13:45:45;99919.71;;;10.77;100.00
40171;BME280;37650;52.790;18.268;2023-04-15T13:49:06;99917.84;;;10.79;100.00
40171;BME280;37650;52.790;18.268;2023-04-15T13:52:28;99924.86;;;10.76;100.00
40171;BME280;37650;52.790;18.268;2023-04-15T13:55:50;99920.00;;;10.71;100.00
40171;BME280;37650;52.790;18.268;2023-04-15T13:59:12;99921.92;;;10.67;100.00
40171;BME280;37650;52.790;18.268;2023-04-15T14:02:33;99917.45;;;10.69;100.00
40171;BME280;37650;52.790;18.268;2023-04-15T14:05:54;99919.80;;;10.75;100.00
40171;BME280;37650;52.790;18.268;2023-04-15T14:09:16;99922.05;;;10.75;100.00
40171;BME280;37650;52.790;18.268;2023-04-15T14:12:38;99921.95;;;10.66;100.00
40171;BME280;37650;52.790;18.268;2023-04-15T14:15:59;99925.88;;;10.56;100.00
40171;BME280;37650;52.790;18.268;2023-04-15T14:19:21;99927.44;;;10.52;100.00
40171;BME280;37650;52.790;18.268;2023-04-15T14:22:43;99927.36;;;10.47;100.00
40171;BME280;37650;52.790;18.268;2023-04-15T14:26:05;99930.14;;;10.43;100.00
40171;BME280;37650;52.790;18.268;2023-04-15T14:29:27;99932.89;;;10.41;100.00
40171;BME280;37650;52.790;18.268;2023-04-15T14:32:48;99935.02;;;10.36;100.00
40171;BME280;37650;52.790;18.268;2023-04-15T14:36:10;99936.81;;;10.35;100.00
40171;BME280;37650;52.790;18.268;2023-04-15T14:39:32;99942.19;;;10.33;100.00
40171;BME280;37650;52.790;18.268;2023-04-15T14:42:53;99943.16;;;10.26;100.00
40171;BME280;37650;52.790;18.268;2023-04-15T14:46:15;99946.29;;;10.23;100.00
40171;BME280;37650;52.790;18.268;2023-04-15T14:49:37;99948.28;;;10.25;100.00
40171;BME280;37650;52.790;18.268;2023-04-15T14:52:59;99949.63;;;10.26;100.00
40171;BME280;37650;52.790;18.268;2023-04-15T14:56:20;99952.59;;;10.23;100.00
40171;BME280;37650;52.790;18.268;2023-04-15T14:59:41;99951.62;;;10.21;100.00
40171;BME280;37650;52.790;18.268;2023-04-15T15:03:03;99953.04;;;10.21;100.00
40171;BME280;37650;52.790;18.268;2023-04-15T15:06:32;99959.11;;;10.22;100.00
40171;BME280;37650;52.790;18.268;2023-04-15T15:09:55;99963.13;;;10.23;100.00
40171;BME280;37650;52.790;18.268;2023-04-15T15:13:19;99963.86;;;10.22;100.00
40171;BME280;37650;52.790;18.268;2023-04-15T15:16:41;99967.18;;;10.18;100.00
40171;BME280;37650;52.790;18.268;2023-04-15T15:20:04;99969.69;;;10.17;100.00
40171;BME280;37650;52.790;18.268;2023-04-15T15:23:27;99972.54;;;10.15;100.00
40171;BME280;37650;52.790;18.268;2023-04-15T15:26:49;99974.29;;;10.10;100.00
40171;BME280;37650;52.790;18.268;2023-04-15T15:30:11;99975.76;;;10.05;100.00
40171;BME280;37650;52.790;18.268;2023-04-15T15:33:34;99977.23;;;10.03;100.00
40171;BME280;37650;52.790;18.268;2023-04-15T15:36:55;99973.90;;;10.03;100.00
40171;BME280;37650;52.790;18.268;2023-04-15T15:40:23;99982.48;;;10.03;100.00
40171;BME280;37650;52.790;18.268;2023-04-15T15:43:44;99983.66;;;10.04;100.00
40171;BME280;37650;52.790;18.268;2023-04-15T15:47:10;99988.98;;;10.07;100.00
40171;BME280;37650;52.790;18.268;2023-04-15T15:50:33;99991.98;;;10.10;100.00
40171;BME280;37650;52.790;18.268;2023-04-15T15:53:55;99994.05;;;10.12;100.00
40171;BME280;37650;52.790;18.268;2023-04-15T15:57:17;99994.75;;;10.11;100.00
40171;BME280;37650;52.790;18.268;2023-04-15T16:00:38;99995.27;;;10.12;100.00
40171;BME280;37650;52.790;18.268;2023-04-15T16:03:59;99996.96;;;10.13;100.00
40171;BME280;37650;52.790;18.268;2023-04-15T16:07:21;99996.91;;;10.20;100.00
40171;BME280;37650;52.790;18.268;2023-04-15T16:10:42;100002.05;;;10.22;100.00
40171;BME280;37650;52.790;18.268;2023-04-15T16:14:04;100003.77;;;10.23;100.00
40171;BME280;37650;52.790;18.268;2023-04-15T16:17:26;100009.39;;;10.23;100.00
40171;BME280;37650;52.790;18.268;2023-04-15T16:20:47;100013.56;;;10.20;100.00
40171;BME280;37650;52.790;18.268;2023-04-15T16:24:08;100013.70;;;10.16;100.00
40171;BME280;37650;52.790;18.268;2023-04-15T16:27:30;100015.91;;;10.08;100.00
40171;BME280;37650;52.790;18.268;2023-04-15T16:30:53;100018.09;;;10.03;100.00
40171;BME280;37650;52.790;18.268;2023-04-15T16:34:14;100019.29;;;9.99;100.00
40171;BME280;37650;52.790;18.268;2023-04-15T16:37:36;100020.54;;;9.94;100.00
40171;BME280;37650;52.790;18.268;2023-04-15T16:40:59;100023.31;;;9.90;100.00
40171;BME280;37650;52.790;18.268;2023-04-15T16:44:23;100026.91;;;9.88;100.00
40171;BME280;37650;52.790;18.268;2023-04-15T16:47:45;100029.26;;;9.86;100.00
40171;BME280;37650;52.790;18.268;2023-04-15T16:51:07;100038.85;;;9.83;100.00
40171;BME280;37650;52.790;18.268;2023-04-15T16:54:29;100039.91;;;9.78;100.00
40171;BME280;37650;52.790;18.268;2023-04-15T16:57:51;100047.33;;;9.72;100.00
40171;BME280;37650;52.790;18.268;2023-04-15T17:01:13;100045.44;;;9.71;100.00
40171;BME280;37650;52.790;18.268;2023-04-15T17:04:34;100050.22;;;9.69;100.00
40171;BME280;37650;52.790;18.268;2023-04-15T17:07:56;100053.05;;;9.64;100.00
40171;BME280;37650;52.790;18.268;2023-04-15T17:11:18;100053.39;;;9.60;100.00
40171;BME280;37650;52.790;18.268;2023-04-15T17:14:39;100060.04;;;9.61;100.00
40171;BME280;37650;52.790;18.268;2023-04-15T17:18:00;100064.64;;;9.59;100.00
40171;BME280;37650;52.790;18.268;2023-04-15T17:21:24;100069.33;;;9.60;100.00
40171;BME280;37650;52.790;18.268;2023-04-15T17:24:46;100076.23;;;9.58;100.00
40171;BME280;37650;52.790;18.268;2023-04-15T17:28:09;100076.70;;;9.60;100.00
40171;BME280;37650;52.790;18.268;2023-04-15T17:31:39;100084.21;;;9.60;100.00
40171;BME280;37650;52.790;18.268;2023-04-15T17:35:03;100090.34;;;9.60;100.00
40171;BME280;37650;52.790;18.268;2023-04-15T17:38:29;100096.86;;;9.59;100.00
40171;BME280;37650;52.790;18.268;2023-04-15T17:41:52;100099.41;;;9.56;100.00